Terminal Aerodrome Forecast
Issued by NWS

Home | Current Version | Previous Version | Text Only | Print | Product List | Glossary On
Versions: 1 2 3 4 5 6 7 8 9 10 11 12 13 14 15 16 17 18 19 20 21 22 23 24 25
000
FTUS42 KMFL 241247 AAA
TAFTMB
TAF AMD
KTMB 241247Z 2413/2512 01005KT P6SM VCTS BKN050CB BKN250
     FM241400 08012KT P6SM VCTS SCT025CB BKN040 BKN250
     FM250000 05003KT P6SM VCSH SCT035=

USA.gov is the U.S. government's official web portal to all federal, state and local government web resources and services.